This is the latest recevied weather packets stored in our database for station/object K0WOI. If no packets are shown the sender has not sent any weather packets the latest 10 day(s).
| Time | Temp. | Humidity | Pressure | Rain* | Wind** | Luminosity | Snow |
|---|---|---|---|---|---|---|---|
| 1777930230 | 26.11° C | 29% | 1000.2 hPa | 0 mm | - | 314 W/m² | - |
| 1777929926 | 26.11° C | 28% | 1000.1 hPa | 0 mm | - | 323 W/m² | - |
| 1777929623 | 26.11° C | 31% | 1000.2 hPa | 0 mm | - | 432 W/m² | - |
| 1777929320 | 26.11° C | 28% | 999.8 hPa | 0 mm | - | 392 W/m² | - |
| 1777929017 | 26.67° C | 30% | 1000.2 hPa | 0 mm | - | 437 W/m² | - |
| 1777928714 | 26.67° C | 29% | 999.9 hPa | 0 mm | - | 491 W/m² | - |
| 1777928411 | 26.67° C | 34% | 999.9 hPa | 0 mm | - | 412 W/m² | - |
| 1777928109 | 27.22° C | 36% | 999.8 hPa | 0 mm | - | 553 W/m² | - |
| 1777927806 | 26.67° C | 34% | 999.8 hPa | 0 mm | - | 334 W/m² | - |
| 1777927504 | 26.67° C | 32% | 999.7 hPa | 0 mm | - | 109 W/m² | - |
| 1777927203 | 27.22° C | 31% | 999.7 hPa | 0 mm | - | 404 W/m² | - |
| 1777926901 | 27.22° C | 37% | 999.7 hPa | 0 mm | - | 411 W/m² | - |
| 1777926596 | 26.67° C | 31% | 999.7 hPa | 0 mm | - | 97 W/m² | - |
| 1777926293 | 27.22° C | 33% | 999.7 hPa | 0 mm | - | 587 W/m² | - |
| 1777925990 | 26.67° C | 33% | 999.7 hPa | 0 mm | - | 623 W/m² | - |
| 1777925687 | 27.22° C | 32% | 999.7 hPa | 0 mm | - | 664 W/m² | - |
| 1777925385 | 27.78° C | 37% | 999.6 hPa | 0 mm | - | 703 W/m² | - |
| 1777925081 | 27.22° C | 31% | 999.6 hPa | 0 mm | - | 687 W/m² | - |
| 1777924778 | 26.67° C | 33% | 999.5 hPa | 0 mm | - | 718 W/m² | - |
| 1777924474 | 25.56° C | 31% | 999.6 hPa | 0 mm | - | 204 W/m² | - |
| 1777924171 | 25.56° C | 31% | 999.5 hPa | 0 mm | - | 124 W/m² | - |
| 1777923867 | 26.11° C | 31% | 999.3 hPa | 0 mm | - | 118 W/m² | - |
| 1777923563 | 26.67° C | 30% | 999.5 hPa | 0 mm | - | 190 W/m² | - |
| 1777923260 | 27.78° C | 28% | 999.6 hPa | 0 mm | - | 200 W/m² | - |
| 1777922959 | 27.78° C | 30% | 999.3 hPa | 0 mm | - | 741 W/m² | - |
* Rain latest hour (hover to see other rain measurements)
** Current wind speed in m/s (hover to see current wind gust speed)